| time (UTC) | temp F | wind direction | speed MPH | gust MPH | rain 1hr in | rain 24hr in | rain mn in | humidity % | barometer mb |
| 20260508224634 | 59 | 0 | 1.0 | 7.0 | 0.00 | 0.00 | 0.00 | 65 | 1015.7 |
| 20260508223059 | 59 | 0 | 2.0 | 10.0 | 0.00 | 0.00 | 0.00 | 63 | 1016.0 |
| 20260508221557 | 59 | 0 | 2.0 | 7.0 | 0.00 | 0.00 | 0.00 | 63 | 1015.9 |
| 20260508220058 | 60 | 97 | 1.0 | 9.0 | 0.00 | 0.00 | 0.00 | 63 | 1015.8 |
| 20260508214600 | 60 | 0 | 0.0 | 9.0 | 0.00 | 0.00 | 0.00 | 62 | 1015.7 |
| 20260508213056 | 61 | 113 | 1.0 | 10.0 | 0.00 | 0.00 | 0.00 | 61 | 1015.9 |
| 20260508211600 | 61 | 103 | 3.0 | 8.0 | 0.00 | 0.00 | 0.00 | 61 | 1015.7 |
| 20260508210055 | 62 | 240 | 4.0 | 12.0 | 0.00 | 0.00 | 0.00 | 59 | 1015.7 |
| 20260508204557 | 62 | 211 | 2.0 | 11.0 | 0.00 | 0.00 | 0.00 | 59 | 1015.6 |
| 20260508203108 | 62 | 153 | 3.0 | 9.0 | 0.00 | 0.00 | 0.00 | 59 | 1015.5 |
| 20260508201602 | 62 | 247 | 2.0 | 10.0 | 0.00 | 0.00 | 0.00 | 57 | 1015.9 |
| 20260508200057 | 63 | 201 | 2.0 | 9.0 | 0.00 | 0.00 | 0.00 | 56 | 1015.8 |
| 20260508194601 | 63 | 259 | 2.0 | 12.0 | 0.00 | 0.00 | 0.00 | 57 | 1016.0 |
| 20260508193055 | 63 | 232 | 2.0 | 9.0 | 0.00 | 0.00 | 0.00 | 57 | 1016.4 |
| 20260508191555 | 62 | 69 | 4.0 | 10.0 | 0.00 | 0.00 | 0.00 | 57 | 1016.6 |
| 20260508190057 | 61 | 221 | 2.0 | 10.0 | 0.00 | 0.00 | 0.00 | 56 | 1016.8 |
| 20260508184554 | 62 | 163 | 3.0 | 13.0 | 0.00 | 0.01 | 0.00 | 57 | 1017.2 |
| 20260508183051 | 61 | 244 | 3.0 | 10.0 | 0.00 | 0.01 | 0.00 | 56 | 1017.4 |
| 20260508181558 | 61 | 159 | 3.0 | 12.0 | 0.00 | 0.01 | 0.00 | 55 | 1017.4 |
| 20260508180057 | 60 | 148 | 1.0 | 11.0 | 0.00 | 0.01 | 0.00 | 56 | 1017.6 |
| 20260508174557 | 61 | 221 | 2.0 | 15.0 | 0.00 | 0.01 | 0.00 | 56 | 1017.5 |
| 20260508173052 | 61 | 91 | 3.0 | 10.0 | 0.00 | 0.01 | 0.00 | 55 | 1017.8 |
| 20260508171552 | 60 | 198 | 4.0 | 12.0 | 0.00 | 0.01 | 0.00 | 58 | 1017.9 |
| 20260508170052 | 59 | 216 | 5.0 | 12.0 | 0.00 | 0.01 | 0.00 | 59 | 1018.0 |
| 20260508164557 | 59 | 99 | 3.0 | 12.0 | 0.00 | 0.03 | 0.00 | 58 | 1018.3 |
| 20260508163111 | 59 | 224 | 2.0 | 11.0 | 0.00 | 0.03 | 0.00 | 58 | 1018.5 |
| 20260508161611 | 60 | 229 | 2.0 | 9.0 | 0.00 | 0.03 | 0.00 | 56 | 1018.7 |
| 20260508160055 | 58 | 153 | 1.0 | 9.0 | 0.00 | 0.03 | 0.00 | 59 | 1018.7 |
| 20260508154611 | 59 | 0 | 0.0 | 0.0 | 0.00 | 0.05 | 0.00 | 60 | 1018.8 |
| 20260508153056 | 58 | 0 | 0.0 | 0.0 | 0.00 | 0.05 | 0.00 | 58 | 1019.0 |
| 20260508151553 | 58 | 0 | 0.0 | 0.0 | 0.00 | 0.05 | 0.00 | 59 | 1019.0 |
| 20260508150059 | 57 | 0 | 0.0 | 0.0 | 0.00 | 0.05 | 0.00 | 60 | 1018.9 |
| 20260508144555 | 56 | 0 | 0.0 | 0.0 | 0.00 | 0.08 | 0.00 | 60 | 1018.8 |
| 20260508143107 | 58 | 0 | 0.0 | 0.0 | 0.00 | 0.08 | 0.00 | 57 | 1018.9 |
| 20260508141552 | 57 | 0 | 0.0 | 0.0 | 0.00 | 0.08 | 0.00 | 59 | 1018.9 |
| 20260508140106 | 56 | 0 | 0.0 | 0.0 | 0.00 | 0.08 | 0.00 | 58 | 1019.2 |
| 20260508134557 | 57 | 0 | 0.0 | 0.0 | 0.00 | 0.11 | 0.00 | 58 | 1019.2 |
| 20260508133105 | 55 | 0 | 0.0 | 0.0 | 0.00 | 0.11 | 0.00 | 61 | 1019.3 |
| 20260508131557 | 53 | 0 | 0.0 | 0.0 | 0.00 | 0.11 | 0.00 | 64 | 1019.2 |
| 20260508130051 | 50 | 0 | 0.0 | 0.0 | 0.00 | 0.11 | 0.00 | 77 | 1019.0 |
| 20260508124554 | 47 | 0 | 0.0 | 0.0 | 0.00 | 0.14 | 0.00 | 94 | 1018.8 |
| 20260508123052 | 44 | 0 | 0.0 | 0.0 | 0.00 | 0.14 | 0.00 | 94 | 1018.8 |
| 20260508121550 | 42 | 0 | 0.0 | 0.0 | 0.00 | 0.14 | 0.00 | 94 | 1018.7 |
| 20260508120058 | 40 | 0 | 0.0 | 0.0 | 0.00 | 0.14 | 0.00 | 93 | 1018.5 |
| 20260508114553 | 39 | 0 | 0.0 | 0.0 | 0.00 | 0.17 | 0.00 | 93 | 1018.5 |
| 20260508113106 | 38 | 0 | 0.0 | 0.0 | 0.00 | 0.17 | 0.00 | 92 | 1018.2 |
| 20260508111604 | 38 | 0 | 0.0 | 0.0 | 0.00 | 0.17 | 0.00 | 92 | 1017.8 |
| 20260508110108 | 38 | 0 | 0.0 | 0.0 | 0.00 | 0.17 | 0.00 | 91 | 1017.6 |
| 20260508104600 | 37 | 0 | 0.0 | 0.0 | 0.00 | 0.20 | 0.00 | 91 | 1017.4 |
| 20260508103102 | 37 | 0 | 0.0 | 0.0 | 0.00 | 0.20 | 0.00 | 90 | 1017.3 |
| 20260508101610 | 38 | 0 | 0.0 | 0.0 | 0.00 | 0.20 | 0.00 | 90 | 1017.2 |
| 20260508100056 | 38 | 0 | 0.0 | 0.0 | 0.00 | 0.20 | 0.00 | 90 | 1016.9 |
| 20260508094551 | 39 | 0 | 0.0 | 0.0 | 0.00 | 0.23 | 0.00 | 90 | 1016.6 |
| 20260508093101 | 39 | 0 | 0.0 | 0.0 | 0.00 | 0.23 | 0.00 | 90 | 1016.4 |
| 20260508091607 | 39 | 0 | 0.0 | 0.0 | 0.00 | 0.23 | 0.00 | 90 | 1016.4 |
| 20260508090103 | 40 | 0 | 0.0 | 0.0 | 0.00 | 0.23 | 0.00 | 90 | 1016.4 |
| 20260508084614 | 40 | 0 | 0.0 | 0.0 | 0.00 | 0.27 | 0.00 | 90 | 1016.2 |
| 20260508083107 | 40 | 0 | 0.0 | 0.0 | 0.00 | 0.27 | 0.00 | 90 | 1016.3 |
| 20260508081559 | 40 | 0 | 0.0 | 0.0 | 0.00 | 0.27 | 0.00 | 90 | 1016.1 |
| 20260508080105 | 41 | 0 | 0.0 | 0.0 | 0.00 | 0.27 | 0.00 | 90 | 1016.1 |
| 20260508074604 | 41 | 0 | 0.0 | 0.0 | 0.00 | 0.32 | 0.00 | 90 | 1016.1 |
| 20260508073100 | 41 | 0 | 0.0 | 0.0 | 0.00 | 0.32 | 0.00 | 90 | 1016.1 |
| 20260508071552 | 42 | 0 | 0.0 | 0.0 | 0.00 | 0.32 | 0.00 | 90 | 1015.9 |
| 20260508064558 | 43 | 0 | 0.0 | 0.0 | 0.00 | 0.38 | 0.00 | 90 | 1015.9 |
| 20260508063102 | 43 | 0 | 0.0 | 0.0 | 0.00 | 0.38 | 0.00 | 90 | 1015.7 |
| 20260508061559 | 43 | 0 | 0.0 | 0.0 | 0.00 | 0.38 | 0.00 | 91 | 1015.8 |
| 20260508054559 | 42 | 0 | 0.0 | 3.0 | 0.00 | 0.43 | 0.00 | 89 | 1015.6 |
| 20260508053106 | 43 | 330 | 0.0 | 2.0 | 0.00 | 0.43 | 0.00 | 88 | 1015.7 |
| 20260508051608 | 43 | 0 | 0.0 | 2.0 | 0.00 | 0.43 | 0.00 | 88 | 1015.9 |
| 20260508050111 | 43 | 0 | 0.0 | 2.0 | 0.00 | 0.43 | 0.00 | 88 | 1016.0 |
| 20260508044557 | 44 | 0 | 0.0 | 3.0 | 0.00 | 0.45 | 0.00 | 88 | 1015.8 |
| 20260508043109 | 44 | 331 | 1.0 | 2.0 | 0.00 | 0.45 | 0.00 | 88 | 1015.8 |
| 20260508041601 | 45 | 0 | 0.0 | 2.0 | 0.00 | 0.45 | 0.00 | 87 | 1015.9 |
| 20260508034555 | 45 | 0 | 0.0 | 0.0 | 0.00 | 0.46 | 0.45 | 87 | 1015.7 |
| 20260508033054 | 46 | 0 | 0.0 | 2.0 | 0.00 | 0.46 | 0.45 | 87 | 1015.8 |
| 20260508031553 | 46 | 0 | 0.0 | 3.0 | 0.00 | 0.46 | 0.45 | 86 | 1015.8 |
| 20260508030057 | 47 | 0 | 1.0 | 3.0 | 0.00 | 0.46 | 0.45 | 86 | 1015.6 |
| 20260508024554 | 47 | 344 | 0.0 | 2.0 | 0.00 | 0.51 | 0.45 | 85 | 1015.6 |
| 20260508023056 | 48 | 0 | 0.0 | 2.0 | 0.00 | 0.51 | 0.45 | 85 | 1015.3 |
| 20260508021600 | 49 | 0 | 0.0 | 0.0 | 0.00 | 0.51 | 0.45 | 84 | 1015.3 |
| 20260508020056 | 49 | 0 | 0.0 | 1.0 | 0.00 | 0.51 | 0.45 | 83 | 1015.0 |
| 20260508014555 | 50 | 0 | 0.0 | 2.0 | 0.00 | 0.58 | 0.45 | 83 | 1014.9 |
| 20260508013056 | 50 | 0 | 0.0 | 2.0 | 0.00 | 0.58 | 0.45 | 82 | 1014.4 |
| 20260508011552 | 51 | 319 | 0.0 | 2.0 | 0.00 | 0.58 | 0.45 | 82 | 1014.5 |
| 20260508010053 | 51 | 23 | 1.0 | 5.0 | 0.00 | 0.58 | 0.45 | 81 | 1014.1 |
| 20260508004558 | 52 | 0 | 0.0 | 8.0 | 0.00 | 0.67 | 0.45 | 80 | 1013.9 |
| 20260508003053 | 53 | 114 | 0.0 | 7.0 | 0.00 | 0.67 | 0.45 | 80 | 1013.6 |
| 20260508001550 | 53 | 0 | 0.0 | 4.0 | 0.00 | 0.67 | 0.45 | 79 | 1013.5 |
| 20260508000058 | 54 | 180 | 2.0 | 8.0 | 0.00 | 0.67 | 0.45 | 77 | 1013.3 |
| 20260507234556 | 55 | 325 | 1.0 | 10.0 | 0.00 | 0.78 | 0.45 | 75 | 1013.4 |
| 20260507233116 | 57 | 0 | 1.0 | 9.0 | 0.00 | 0.78 | 0.45 | 74 | 1013.1 |
| 20260507231550 | 58 | 85 | 1.0 | 8.0 | 0.00 | 0.78 | 0.45 | 73 | 1013.0 |
| 20260507230052 | 59 | 99 | 2.0 | 7.0 | 0.00 | 0.78 | 0.45 | 72 | 1012.5 |